sensor_id;sensor_type;location;lat;lon;timestamp;P1;durP1;ratioP1;P2;durP2;ratioP2
21539;SDS011;10931;52.164;5.518;2022-12-07T00:00:18;1.38;;;0.68;;
21539;SDS011;10931;52.164;5.518;2022-12-07T00:02:46;0.80;;;0.57;;
21539;SDS011;10931;52.164;5.518;2022-12-07T00:05:13;1.58;;;0.65;;
21539;SDS011;10931;52.164;5.518;2022-12-07T00:07:39;1.27;;;0.50;;
21539;SDS011;10931;52.164;5.518;2022-12-07T00:10:07;1.17;;;0.50;;
21539;SDS011;10931;52.164;5.518;2022-12-07T00:12:35;1.00;;;0.70;;
21539;SDS011;10931;52.164;5.518;2022-12-07T00:15:04;0.85;;;0.52;;
21539;SDS011;10931;52.164;5.518;2022-12-07T00:18:10;1.40;;;0.43;;
21539;SDS011;10931;52.164;5.518;2022-12-07T00:21:22;0.80;;;0.50;;
21539;SDS011;10931;52.164;5.518;2022-12-07T00:23:59;1.65;;;0.70;;
21539;SDS011;10931;52.164;5.518;2022-12-07T00:26:33;1.52;;;0.77;;
21539;SDS011;10931;52.164;5.518;2022-12-07T00:29:16;0.80;;;0.60;;
21539;SDS011;10931;52.164;5.518;2022-12-07T00:31:56;0.43;;;0.40;;
21539;SDS011;10931;52.164;5.518;2022-12-07T00:34:29;0.90;;;0.60;;
21539;SDS011;10931;52.164;5.518;2022-12-07T00:37:02;0.90;;;0.60;;
21539;SDS011;10931;52.164;5.518;2022-12-07T00:39:29;0.60;;;0.50;;
21539;SDS011;10931;52.164;5.518;2022-12-07T00:41:57;1.13;;;0.70;;
21539;SDS011;10931;52.164;5.518;2022-12-07T00:47:00;1.15;;;0.73;;
21539;SDS011;10931;52.164;5.518;2022-12-07T00:49:26;1.00;;;0.50;;
21539;SDS011;10931;52.164;5.518;2022-12-07T00:51:52;1.08;;;0.60;;
21539;SDS011;10931;52.164;5.518;2022-12-07T00:54:18;0.85;;;0.50;;
21539;SDS011;10931;52.164;5.518;2022-12-07T00:56:51;1.67;;;0.77;;
21539;SDS011;10931;52.164;5.518;2022-12-07T00:59:16;1.27;;;0.80;;
21539;SDS011;10931;52.164;5.518;2022-12-07T01:01:46;0.73;;;0.50;;
21539;SDS011;10931;52.164;5.518;2022-12-07T01:04:17;1.38;;;0.60;;
21539;SDS011;10931;52.164;5.518;2022-12-07T01:06:46;1.02;;;0.50;;
21539;SDS011;10931;52.164;5.518;2022-12-07T01:09:14;1.30;;;0.65;;
21539;SDS011;10931;52.164;5.518;2022-12-07T01:11:44;1.27;;;0.60;;
21539;SDS011;10931;52.164;5.518;2022-12-07T01:14:14;0.75;;;0.50;;
21539;SDS011;10931;52.164;5.518;2022-12-07T01:16:43;0.70;;;0.52;;
21539;SDS011;10931;52.164;5.518;2022-12-07T01:19:18;0.90;;;0.50;;
21539;SDS011;10931;52.164;5.518;2022-12-07T01:21:51;1.02;;;0.50;;
21539;SDS011;10931;52.164;5.518;2022-12-07T01:24:35;0.60;;;0.40;;
21539;SDS011;10931;52.164;5.518;2022-12-07T01:29:48;0.88;;;0.50;;
21539;SDS011;10931;52.164;5.518;2022-12-07T01:34:58;1.27;;;0.60;;
21539;SDS011;10931;52.164;5.518;2022-12-07T01:37:46;1.45;;;0.50;;
21539;SDS011;10931;52.164;5.518;2022-12-07T01:43:18;2.42;;;0.45;;
21539;SDS011;10931;52.164;5.518;2022-12-07T01:45:49;0.50;;;0.30;;
21539;SDS011;10931;52.164;5.518;2022-12-07T01:48:41;0.80;;;0.60;;
21539;SDS011;10931;52.164;5.518;2022-12-07T01:51:09;0.98;;;0.50;;
21539;SDS011;10931;52.164;5.518;2022-12-07T01:53:38;0.68;;;0.40;;
21539;SDS011;10931;52.164;5.518;2022-12-07T01:56:06;0.93;;;0.50;;
21539;SDS011;10931;52.164;5.518;2022-12-07T02:04:45;2.75;;;0.60;;
21539;SDS011;10931;52.164;5.518;2022-12-07T02:07:32;0.80;;;0.57;;
21539;SDS011;10931;52.164;5.518;2022-12-07T02:10:23;0.68;;;0.50;;
21539;SDS011;10931;52.164;5.518;2022-12-07T02:12:59;0.68;;;0.40;;
21539;SDS011;10931;52.164;5.518;2022-12-07T02:22:07;0.70;;;0.57;;
21539;SDS011;10931;52.164;5.518;2022-12-07T02:30:17;1.52;;;0.50;;
21539;SDS011;10931;52.164;5.518;2022-12-07T02:35:28;1.98;;;0.60;;
21539;SDS011;10931;52.164;5.518;2022-12-07T02:41:01;1.08;;;0.50;;
21539;SDS011;10931;52.164;5.518;2022-12-07T02:43:53;0.77;;;0.40;;
21539;SDS011;10931;52.164;5.518;2022-12-07T02:46:22;0.55;;;0.50;;
21539;SDS011;10931;52.164;5.518;2022-12-07T02:48:54;2.85;;;0.57;;
21539;SDS011;10931;52.164;5.518;2022-12-07T02:51:42;1.25;;;0.40;;
21539;SDS011;10931;52.164;5.518;2022-12-07T02:54:16;0.90;;;0.60;;
21539;SDS011;10931;52.164;5.518;2022-12-07T02:59:14;0.60;;;0.50;;
21539;SDS011;10931;52.164;5.518;2022-12-07T03:13:50;1.58;;;0.60;;
21539;SDS011;10931;52.164;5.518;2022-12-07T03:16:35;1.52;;;0.63;;
21539;SDS011;10931;52.164;5.518;2022-12-07T03:19:17;1.17;;;0.50;;
21539;SDS011;10931;52.164;5.518;2022-12-07T03:22:07;0.55;;;0.40;;
21539;SDS011;10931;52.164;5.518;2022-12-07T03:24:42;1.45;;;0.40;;
21539;SDS011;10931;52.164;5.518;2022-12-07T03:27:34;1.73;;;0.47;;
21539;SDS011;10931;52.164;5.518;2022-12-07T03:30:39;1.10;;;0.60;;
21539;SDS011;10931;52.164;5.518;2022-12-07T03:33:31;1.00;;;0.50;;
21539;SDS011;10931;52.164;5.518;2022-12-07T03:41:55;0.68;;;0.28;;
21539;SDS011;10931;52.164;5.518;2022-12-07T03:47:21;0.55;;;0.30;;
21539;SDS011;10931;52.164;5.518;2022-12-07T03:52:51;0.90;;;0.38;;
21539;SDS011;10931;52.164;5.518;2022-12-07T03:55:27;1.13;;;0.50;;
21539;SDS011;10931;52.164;5.518;2022-12-07T03:58:09;1.13;;;0.57;;
21539;SDS011;10931;52.164;5.518;2022-12-07T04:00:49;0.95;;;0.40;;
21539;SDS011;10931;52.164;5.518;2022-12-07T04:03:23;0.52;;;0.40;;
21539;SDS011;10931;52.164;5.518;2022-12-07T04:05:54;0.40;;;0.40;;
21539;SDS011;10931;52.164;5.518;2022-12-07T04:08:20;0.80;;;0.40;;
21539;SDS011;10931;52.164;5.518;2022-12-07T04:10:49;0.77;;;0.38;;
21539;SDS011;10931;52.164;5.518;2022-12-07T04:13:20;0.73;;;0.30;;
21539;SDS011;10931;52.164;5.518;2022-12-07T04:15:48;0.30;;;0.30;;
21539;SDS011;10931;52.164;5.518;2022-12-07T04:18:25;0.50;;;0.40;;
21539;SDS011;10931;52.164;5.518;2022-12-07T04:21:06;2.00;;;0.50;;
21539;SDS011;10931;52.164;5.518;2022-12-07T04:23:43;0.70;;;0.40;;
21539;SDS011;10931;52.164;5.518;2022-12-07T04:26:08;1.02;;;0.47;;
21539;SDS011;10931;52.164;5.518;2022-12-07T04:28:50;0.98;;;0.50;;
21539;SDS011;10931;52.164;5.518;2022-12-07T04:31:16;1.08;;;0.40;;
21539;SDS011;10931;52.164;5.518;2022-12-07T04:33:42;0.57;;;0.30;;
21539;SDS011;10931;52.164;5.518;2022-12-07T04:36:09;0.45;;;0.30;;
21539;SDS011;10931;52.164;5.518;2022-12-07T04:38:40;1.25;;;0.35;;
21539;SDS011;10931;52.164;5.518;2022-12-07T04:41:06;0.70;;;0.30;;
21539;SDS011;10931;52.164;5.518;2022-12-07T04:46:11;0.68;;;0.40;;
21539;SDS011;10931;52.164;5.518;2022-12-07T04:48:40;0.45;;;0.30;;
21539;SDS011;10931;52.164;5.518;2022-12-07T04:51:46;1.88;;;0.70;;
21539;SDS011;10931;52.164;5.518;2022-12-07T04:54:13;1.10;;;0.30;;
21539;SDS011;10931;52.164;5.518;2022-12-07T04:56:49;2.50;;;0.40;;
21539;SDS011;10931;52.164;5.518;2022-12-07T04:59:19;0.50;;;0.20;;
21539;SDS011;10931;52.164;5.518;2022-12-07T05:01:44;0.43;;;0.40;;
21539;SDS011;10931;52.164;5.518;2022-12-07T05:04:32;0.57;;;0.30;;
21539;SDS011;10931;52.164;5.518;2022-12-07T05:07:14;1.20;;;0.50;;
21539;SDS011;10931;52.164;5.518;2022-12-07T05:09:47;0.80;;;0.30;;
21539;SDS011;10931;52.164;5.518;2022-12-07T05:12:20;1.05;;;0.32;;
21539;SDS011;10931;52.164;5.518;2022-12-07T05:14:46;0.40;;;0.30;;
21539;SDS011;10931;52.164;5.518;2022-12-07T05:17:12;0.45;;;0.30;;
21539;SDS011;10931;52.164;5.518;2022-12-07T05:19:48;0.77;;;0.40;;
21539;SDS011;10931;52.164;5.518;2022-12-07T05:22:16;0.80;;;0.30;;
21539;SDS011;10931;52.164;5.518;2022-12-07T05:24:50;0.50;;;0.30;;
21539;SDS011;10931;52.164;5.518;2022-12-07T05:27:25;0.60;;;0.20;;
21539;SDS011;10931;52.164;5.518;2022-12-07T05:29:52;0.95;;;0.30;;
21539;SDS011;10931;52.164;5.518;2022-12-07T05:35:33;0.82;;;0.40;;
21539;SDS011;10931;52.164;5.518;2022-12-07T05:38:02;0.65;;;0.20;;
21539;SDS011;10931;52.164;5.518;2022-12-07T05:40:38;0.90;;;0.40;;
21539;SDS011;10931;52.164;5.518;2022-12-07T05:43:07;1.25;;;0.47;;
21539;SDS011;10931;52.164;5.518;2022-12-07T05:45:33;0.93;;;0.40;;
21539;SDS011;10931;52.164;5.518;2022-12-07T05:48:06;0.68;;;0.30;;
21539;SDS011;10931;52.164;5.518;2022-12-07T05:50:35;0.73;;;0.40;;
21539;SDS011;10931;52.164;5.518;2022-12-07T05:53:13;0.57;;;0.30;;
21539;SDS011;10931;52.164;5.518;2022-12-07T05:55:42;0.60;;;0.30;;
21539;SDS011;10931;52.164;5.518;2022-12-07T05:58:10;0.57;;;0.32;;
21539;SDS011;10931;52.164;5.518;2022-12-07T06:00:59;0.20;;;0.20;;
21539;SDS011;10931;52.164;5.518;2022-12-07T06:03:38;0.73;;;0.40;;
21539;SDS011;10931;52.164;5.518;2022-12-07T06:06:12;0.68;;;0.30;;
21539;SDS011;10931;52.164;5.518;2022-12-07T06:08:38;1.27;;;0.50;;
21539;SDS011;10931;52.164;5.518;2022-12-07T06:11:13;0.98;;;0.55;;
21539;SDS011;10931;52.164;5.518;2022-12-07T06:13:59;0.88;;;0.28;;
21539;SDS011;10931;52.164;5.518;2022-12-07T06:16:48;0.60;;;0.40;;
21539;SDS011;10931;52.164;5.518;2022-12-07T06:19:21;0.60;;;0.30;;
21539;SDS011;10931;52.164;5.518;2022-12-07T06:21:59;1.08;;;0.30;;
21539;SDS011;10931;52.164;5.518;2022-12-07T06:24:39;1.65;;;0.50;;
21539;SDS011;10931;52.164;5.518;2022-12-07T06:27:16;0.98;;;0.20;;
21539;SDS011;10931;52.164;5.518;2022-12-07T06:32:41;3.15;;;0.40;;
21539;SDS011;10931;52.164;5.518;2022-12-07T06:35:15;0.70;;;0.40;;
21539;SDS011;10931;52.164;5.518;2022-12-07T06:37:58;0.32;;;0.30;;
21539;SDS011;10931;52.164;5.518;2022-12-07T06:43:00;0.20;;;0.20;;
21539;SDS011;10931;52.164;5.518;2022-12-07T06:45:25;1.50;;;0.30;;
21539;SDS011;10931;52.164;5.518;2022-12-07T06:47:56;0.45;;;0.30;;
21539;SDS011;10931;52.164;5.518;2022-12-07T06:50:22;2.38;;;0.30;;
21539;SDS011;10931;52.164;5.518;2022-12-07T06:52:51;0.80;;;0.30;;
21539;SDS011;10931;52.164;5.518;2022-12-07T06:55:50;2.13;;;0.50;;
21539;SDS011;10931;52.164;5.518;2022-12-07T06:58:19;0.80;;;0.32;;
21539;SDS011;10931;52.164;5.518;2022-12-07T07:00:45;0.28;;;0.20;;
21539;SDS011;10931;52.164;5.518;2022-12-07T07:03:10;0.60;;;0.30;;
21539;SDS011;10931;52.164;5.518;2022-12-07T07:05:36;1.55;;;0.20;;
21539;SDS011;10931;52.164;5.518;2022-12-07T07:08:02;1.17;;;0.30;;
21539;SDS011;10931;52.164;5.518;2022-12-07T07:10:28;1.25;;;0.50;;
21539;SDS011;10931;52.164;5.518;2022-12-07T07:13:00;0.52;;;0.30;;
21539;SDS011;10931;52.164;5.518;2022-12-07T07:18:22;1.10;;;0.30;;
21539;SDS011;10931;52.164;5.518;2022-12-07T07:21:01;0.95;;;0.30;;
21539;SDS011;10931;52.164;5.518;2022-12-07T07:26:11;0.28;;;0.20;;
21539;SDS011;10931;52.164;5.518;2022-12-07T07:28:44;0.88;;;0.32;;
21539;SDS011;10931;52.164;5.518;2022-12-07T07:31:10;0.30;;;0.30;;
21539;SDS011;10931;52.164;5.518;2022-12-07T07:33:36;0.57;;;0.25;;
21539;SDS011;10931;52.164;5.518;2022-12-07T07:36:18;0.80;;;0.30;;
21539;SDS011;10931;52.164;5.518;2022-12-07T07:38:45;1.42;;;0.28;;
21539;SDS011;10931;52.164;5.518;2022-12-07T07:41:34;0.95;;;0.30;;
21539;SDS011;10931;52.164;5.518;2022-12-07T07:44:01;0.77;;;0.30;;
21539;SDS011;10931;52.164;5.518;2022-12-07T07:46:32;2.05;;;0.38;;
21539;SDS011;10931;52.164;5.518;2022-12-07T07:49:00;0.90;;;0.40;;
21539;SDS011;10931;52.164;5.518;2022-12-07T07:51:27;1.77;;;0.43;;
21539;SDS011;10931;52.164;5.518;2022-12-07T07:54:17;2.70;;;0.40;;
21539;SDS011;10931;52.164;5.518;2022-12-07T07:56:52;0.63;;;0.40;;
21539;SDS011;10931;52.164;5.518;2022-12-07T07:59:22;0.47;;;0.30;;
21539;SDS011;10931;52.164;5.518;2022-12-07T08:04:35;1.10;;;0.40;;
21539;SDS011;10931;52.164;5.518;2022-12-07T08:07:01;1.65;;;0.30;;
21539;SDS011;10931;52.164;5.518;2022-12-07T08:09:29;1.02;;;0.38;;
21539;SDS011;10931;52.164;5.518;2022-12-07T08:11:57;0.85;;;0.32;;
21539;SDS011;10931;52.164;5.518;2022-12-07T08:14:23;0.65;;;0.30;;
21539;SDS011;10931;52.164;5.518;2022-12-07T08:16:49;1.23;;;0.47;;
21539;SDS011;10931;52.164;5.518;2022-12-07T08:19:16;0.65;;;0.30;;
21539;SDS011;10931;52.164;5.518;2022-12-07T08:21:42;0.57;;;0.40;;
21539;SDS011;10931;52.164;5.518;2022-12-07T08:24:08;0.40;;;0.22;;
21539;SDS011;10931;52.164;5.518;2022-12-07T08:26:33;0.50;;;0.25;;
21539;SDS011;10931;52.164;5.518;2022-12-07T08:28:59;0.57;;;0.35;;
21539;SDS011;10931;52.164;5.518;2022-12-07T08:31:25;0.40;;;0.20;;
21539;SDS011;10931;52.164;5.518;2022-12-07T08:33:59;0.60;;;0.40;;
21539;SDS011;10931;52.164;5.518;2022-12-07T08:36:27;1.20;;;0.50;;
21539;SDS011;10931;52.164;5.518;2022-12-07T08:38:53;1.25;;;0.30;;
21539;SDS011;10931;52.164;5.518;2022-12-07T08:41:19;0.57;;;0.28;;
21539;SDS011;10931;52.164;5.518;2022-12-07T08:43:45;0.70;;;0.40;;
21539;SDS011;10931;52.164;5.518;2022-12-07T08:48:49;0.95;;;0.30;;
21539;SDS011;10931;52.164;5.518;2022-12-07T08:51:27;1.15;;;0.45;;
21539;SDS011;10931;52.164;5.518;2022-12-07T08:53:53;0.30;;;0.20;;
21539;SDS011;10931;52.164;5.518;2022-12-07T08:56:36;0.75;;;0.38;;
21539;SDS011;10931;52.164;5.518;2022-12-07T08:59:02;1.63;;;0.47;;
21539;SDS011;10931;52.164;5.518;2022-12-07T09:01:30;0.77;;;0.40;;
21539;SDS011;10931;52.164;5.518;2022-12-07T09:03:55;0.20;;;0.20;;
21539;SDS011;10931;52.164;5.518;2022-12-07T09:06:23;0.50;;;0.28;;
21539;SDS011;10931;52.164;5.518;2022-12-07T09:08:52;0.22;;;0.20;;
21539;SDS011;10931;52.164;5.518;2022-12-07T09:11:35;1.38;;;0.30;;
21539;SDS011;10931;52.164;5.518;2022-12-07T09:14:03;0.93;;;0.30;;
21539;SDS011;10931;52.164;5.518;2022-12-07T09:16:31;1.95;;;0.30;;
21539;SDS011;10931;52.164;5.518;2022-12-07T09:18:57;0.98;;;0.30;;
21539;SDS011;10931;52.164;5.518;2022-12-07T09:24:08;0.68;;;0.30;;
21539;SDS011;10931;52.164;5.518;2022-12-07T09:26:36;0.47;;;0.30;;
21539;SDS011;10931;52.164;5.518;2022-12-07T09:29:04;0.82;;;0.35;;
21539;SDS011;10931;52.164;5.518;2022-12-07T09:31:32;0.73;;;0.30;;
21539;SDS011;10931;52.164;5.518;2022-12-07T09:34:03;0.93;;;0.30;;
21539;SDS011;10931;52.164;5.518;2022-12-07T09:36:30;0.90;;;0.35;;
21539;SDS011;10931;52.164;5.518;2022-12-07T09:39:04;0.70;;;0.30;;
21539;SDS011;10931;52.164;5.518;2022-12-07T09:41:39;1.20;;;0.68;;
21539;SDS011;10931;52.164;5.518;2022-12-07T09:44:20;1.02;;;0.40;;
21539;SDS011;10931;52.164;5.518;2022-12-07T09:46:53;1.20;;;0.40;;
21539;SDS011;10931;52.164;5.518;2022-12-07T09:49:39;0.47;;;0.20;;
21539;SDS011;10931;52.164;5.518;2022-12-07T09:54:46;1.88;;;0.22;;
21539;SDS011;10931;52.164;5.518;2022-12-07T09:57:41;0.63;;;0.30;;
21539;SDS011;10931;52.164;5.518;2022-12-07T10:00:24;0.35;;;0.17;;
21539;SDS011;10931;52.164;5.518;2022-12-07T10:08:04;0.80;;;0.20;;
21539;SDS011;10931;52.164;5.518;2022-12-07T10:13:19;0.77;;;0.40;;
21539;SDS011;10931;52.164;5.518;2022-12-07T10:19:04;0.70;;;0.30;;
21539;SDS011;10931;52.164;5.518;2022-12-07T11:36:44;0.75;;;0.20;;
21539;SDS011;10931;52.164;5.518;2022-12-07T11:42:09;0.43;;;0.30;;
21539;SDS011;10931;52.164;5.518;2022-12-07T11:48:24;0.40;;;0.20;;
21539;SDS011;10931;52.164;5.518;2022-12-07T13:31:33;1.20;;;0.40;;
21539;SDS011;10931;52.164;5.518;2022-12-07T16:07:30;0.22;;;0.22;;
21539;SDS011;10931;52.164;5.518;2022-12-07T16:13:44;1.00;;;0.32;;
21539;SDS011;10931;52.164;5.518;2022-12-07T16:16:19;0.85;;;0.32;;
21539;SDS011;10931;52.164;5.518;2022-12-07T16:18:47;0.75;;;0.50;;
21539;SDS011;10931;52.164;5.518;2022-12-07T16:21:16;0.95;;;0.47;;
21539;SDS011;10931;52.164;5.518;2022-12-07T16:27:20;0.63;;;0.50;;
21539;SDS011;10931;52.164;5.518;2022-12-07T16:50:32;0.82;;;0.40;;
21539;SDS011;10931;52.164;5.518;2022-12-07T16:52:59;0.95;;;0.50;;
21539;SDS011;10931;52.164;5.518;2022-12-07T16:58:45;0.55;;;0.40;;
21539;SDS011;10931;52.164;5.518;2022-12-07T17:09:01;1.13;;;0.45;;
21539;SDS011;10931;52.164;5.518;2022-12-07T17:14:34;0.60;;;0.50;;
21539;SDS011;10931;52.164;5.518;2022-12-07T17:28:16;2.15;;;0.70;;
21539;SDS011;10931;52.164;5.518;2022-12-07T17:35:23;1.55;;;0.50;;
21539;SDS011;10931;52.164;5.518;2022-12-07T19:46:26;1.50;;;0.80;;
21539;SDS011;10931;52.164;5.518;2022-12-07T19:53:12;1.38;;;0.57;;
21539;SDS011;10931;52.164;5.518;2022-12-07T20:02:21;0.70;;;0.50;;
21539;SDS011;10931;52.164;5.518;2022-12-07T22:12:40;1.00;;;0.70;;
21539;SDS011;10931;52.164;5.518;2022-12-07T22:15:19;1.10;;;0.70;;
21539;SDS011;10931;52.164;5.518;2022-12-07T22:18:11;2.10;;;0.75;;
21539;SDS011;10931;52.164;5.518;2022-12-07T22:24:54;0.75;;;0.60;;
21539;SDS011;10931;52.164;5.518;2022-12-07T22:34:23;1.52;;;0.75;;
21539;SDS011;10931;52.164;5.518;2022-12-07T22:37:00;0.90;;;0.80;;
21539;SDS011;10931;52.164;5.518;2022-12-07T22:39:31;2.50;;;0.77;;
21539;SDS011;10931;52.164;5.518;2022-12-07T22:42:29;1.15;;;0.60;;
21539;SDS011;10931;52.164;5.518;2022-12-07T22:45:40;0.95;;;0.73;;
21539;SDS011;10931;52.164;5.518;2022-12-07T22:48:53;1.70;;;0.70;;
21539;SDS011;10931;52.164;5.518;2022-12-07T22:51:55;1.30;;;0.80;;
21539;SDS011;10931;52.164;5.518;2022-12-07T23:16:41;1.33;;;0.70;;
21539;SDS011;10931;52.164;5.518;2022-12-07T23:19:49;0.98;;;0.70;;
21539;SDS011;10931;52.164;5.518;2022-12-07T23:28:40;1.08;;;0.55;;
21539;SDS011;10931;52.164;5.518;2022-12-07T23:31:46;0.68;;;0.50;;
